Time;durP1;ratioP1;P1;durP2;ratioP2;P2;SDS_P1;SDS_P2;PMS_P1;PMS_P2;Temp;Humidity;BMP_temperature;BMP_pressure;BME280_temperature;BME280_humidity;BME280_pressure;Samples;Min_cycle;Max_cycle;Signal;HPM_P1;HPM_P2
2022/11/02 00:01:26;;;;;;;2.10;1.13;;;18.40;68.50;;;;;;5051479;28;20187;-73
2022/11/02 00:03:51;;;;;;;2.63;1.10;;;18.40;68.40;;;;;;5051837;28;20248;-72
2022/11/02 00:06:17;;;;;;;2.25;1.17;;;18.40;68.50;;;;;;5051605;28;20646;-72
2022/11/02 00:08:42;;;;;;;1.83;1.23;;;18.40;68.40;;;;;;5052613;28;20264;-72
2022/11/02 00:11:08;;;;;;;3.53;1.67;;;18.40;68.50;;;;;;5052410;28;20166;-73
2022/11/02 00:13:33;;;;;;;1.60;1.10;;;18.30;68.40;;;;;;5053775;28;20230;-72
2022/11/02 00:16:03;;;;;;;3.22;1.17;;;18.40;68.40;;;;;;5056811;28;20182;-72
2022/11/02 00:18:29;;;;;;;3.83;1.42;;;18.40;68.40;;;;;;5055589;28;20178;-72
2022/11/02 00:20:54;;;;;;;2.45;1.58;;;18.40;68.40;;;;;;5054915;28;20167;-72
2022/11/02 00:23:20;;;;;;;2.40;1.05;;;18.40;68.40;;;;;;5055478;28;20179;-73
2022/11/02 00:25:46;;;;;;;2.33;1.13;;;18.40;68.40;;;;;;5055392;28;20178;-73
2022/11/02 00:28:13;;;;;;;1.95;1.15;;;18.40;68.40;;;;;;5054462;28;20206;-72
2022/11/02 00:30:38;;;;;;;2.08;1.35;;;18.40;68.40;;;;;;5055491;28;20179;-72
2022/11/02 00:33:04;;;;;;;1.55;1.08;;;18.40;68.40;;;;;;5056472;28;20174;-71
2022/11/02 00:35:29;;;;;;;1.80;1.25;;;18.40;68.40;;;;;;5055635;28;20691;-72
2022/11/02 00:37:55;;;;;;;3.10;1.27;;;18.40;68.40;;;;;;5055445;28;20187;-72
2022/11/02 00:40:20;;;;;;;2.05;1.05;;;18.40;68.30;;;;;;5056290;28;20258;-72
2022/11/02 00:42:46;;;;;;;2.00;1.35;;;18.40;68.30;;;;;;5055804;28;20233;-73
2022/11/02 00:45:11;;;;;;;2.35;1.08;;;18.40;68.30;;;;;;5055949;28;20764;-72
2022/11/02 00:47:37;;;;;;;2.33;1.25;;;18.30;68.30;;;;;;5056272;28;20163;-73
2022/11/02 00:50:03;;;;;;;3.05;1.40;;;18.30;68.30;;;;;;5055203;28;20187;-73
2022/11/02 00:52:28;;;;;;;2.05;1.35;;;18.40;68.40;;;;;;5056474;28;20174;-72
2022/11/02 00:54:54;;;;;;;3.03;1.25;;;18.40;68.40;;;;;;5055614;28;20569;-73
2022/11/02 00:57:19;;;;;;;3.42;1.40;;;18.40;68.40;;;;;;5055964;28;20842;-72
2022/11/02 00:59:45;;;;;;;1.85;0.95;;;18.30;68.30;;;;;;5056056;28;20175;-73
2022/11/02 01:02:10;;;;;;;2.72;1.40;;;18.40;68.40;;;;;;5055036;28;20541;-73
2022/11/02 01:04:36;;;;;;;1.77;0.90;;;18.40;68.30;;;;;;5055873;28;20679;-72
2022/11/02 01:07:02;;;;;;;3.20;1.13;;;18.30;68.30;;;;;;5055898;28;20706;-73
2022/11/02 01:09:27;;;;;;;2.53;1.15;;;18.30;68.30;;;;;;5055250;28;20210;-72
2022/11/02 01:11:53;;;;;;;2.05;1.20;;;18.30;68.30;;;;;;5055817;28;20179;-73
2022/11/02 01:14:19;;;;;;;2.58;1.20;;;18.30;68.30;;;;;;5055426;28;20223;-72
2022/11/02 01:16:45;;;;;;;1.95;1.13;;;18.20;68.20;;;;;;5055079;28;20175;-72
2022/11/02 01:19:10;;;;;;;2.08;1.23;;;18.30;68.40;;;;;;5055440;28;20313;-73
2022/11/02 01:21:36;;;;;;;1.98;1.05;;;18.30;68.40;;;;;;5055854;28;20253;-72
2022/11/02 01:24:01;;;;;;;2.10;1.02;;;18.30;68.30;;;;;;5054594;28;20175;-74
2022/11/02 01:26:27;;;;;;;1.33;0.95;;;18.30;68.30;;;;;;5055046;28;20171;-72
2022/11/02 01:28:53;;;;;;;1.98;1.30;;;18.30;68.40;;;;;;5055407;28;20203;-73
2022/11/02 01:31:18;;;;;;;2.42;1.33;;;18.30;68.40;;;;;;5054486;28;20535;-73
2022/11/02 01:33:44;;;;;;;2.05;0.85;;;18.30;68.40;;;;;;5055360;28;20179;-72
2022/11/02 01:36:10;;;;;;;2.25;0.98;;;18.30;69.20;;;;;;5055244;28;20175;-73
2022/11/02 01:38:36;;;;;;;2.70;1.02;;;18.30;68.40;;;;;;5054565;28;20229;-72
2022/11/02 01:41:01;;;;;;;3.83;1.38;;;18.30;68.40;;;;;;5055189;28;20167;-73
2022/11/02 01:43:30;;;;;;;2.65;1.10;;;18.30;68.40;;;;;;5055356;28;20167;-73
2022/11/02 01:46:14;;;;;;;4.57;1.30;;;18.30;68.40;;;;;;5054569;28;20229;-73
2022/11/02 01:49:02;;;;;;;2.50;1.33;;;18.30;68.40;;;;;;5055061;28;20293;-73
2022/11/02 01:51:37;;;;;;;2.35;1.27;;;18.30;68.40;;;;;;5053190;28;20178;-73
2022/11/02 01:54:09;;;;;;;2.42;1.50;;;18.30;68.40;;;;;;5053603;28;20183;-73
2022/11/02 01:56:34;;;;;;;1.95;1.00;;;18.30;68.40;;;;;;5053787;28;20179;-73
2022/11/02 01:59:01;;;;;;;2.97;0.98;;;18.30;68.40;;;;;;5053882;28;20661;-74
2022/11/02 02:01:27;;;;;;;2.08;1.15;;;18.30;68.50;;;;;;5053927;28;20171;-72
2022/11/02 02:03:53;;;;;;;2.28;1.05;;;18.20;68.40;;;;;;5053764;28;20175;-72
2022/11/02 02:06:18;;;;;;;1.88;0.98;;;18.20;68.30;;;;;;5052782;28;20720;-71
2022/11/02 02:08:46;;;;;;;1.85;1.02;;;18.20;68.20;;;;;;5054637;28;20246;-72
2022/11/02 02:11:24;;;;;;;1.35;0.98;;;18.20;68.10;;;;;;5053264;28;20258;-72
2022/11/02 02:13:50;;;;;;;1.45;1.13;;;18.20;68.20;;;;;;5052828;28;20223;-72
2022/11/02 02:16:20;;;;;;;1.83;1.02;;;18.20;68.20;;;;;;5053308;28;20188;-72
2022/11/02 02:18:51;;;;;;;2.60;1.17;;;18.20;68.20;;;;;;5053478;28;20185;-72
2022/11/02 02:21:31;;;;;;;2.95;1.35;;;18.20;68.10;;;;;;5052464;28;20179;-73
2022/11/02 02:24:38;;;;;;;1.20;1.00;;;18.20;68.20;;;;;;5053246;28;20270;-74
2022/11/02 02:27:11;;;;;;;1.88;1.00;;;18.20;68.10;;;;;;5052514;28;20197;-73
2022/11/02 02:29:56;;;;;;;2.17;1.00;;;18.20;68.10;;;;;;5053213;28;20559;-73
2022/11/02 02:32:30;;;;;;;2.65;1.02;;;18.20;68.10;;;;;;5054040;28;20179;-72
2022/11/02 02:35:37;;;;;;;1.77;1.00;;;18.20;68.10;;;;;;5052599;28;20187;-72
2022/11/02 02:38:05;;;;;;;2.88;1.50;;;18.20;68.10;;;;;;5052639;28;20204;-72
2022/11/02 02:41:09;;;;;;;1.95;0.90;;;18.20;68.00;;;;;;5052221;28;20502;-72
2022/11/02 02:43:43;;;;;;;2.00;1.08;;;18.20;68.10;;;;;;5053602;28;20198;-72
2022/11/02 02:46:21;;;;;;;2.20;1.15;;;18.20;68.00;;;;;;5052656;28;20174;-73
2022/11/02 02:48:47;;;;;;;0.80;0.80;;;18.20;68.00;;;;;;5051930;28;20684;-73
2022/11/02 02:51:19;;;;;;;2.13;1.40;;;18.20;68.00;;;;;;5052428;28;20232;-72
2022/11/02 02:53:57;;;;;;;2.30;1.00;;;18.20;68.00;;;;;;5052822;28;20201;-73
2022/11/02 02:56:22;;;;;;;1.35;0.98;;;18.20;68.00;;;;;;5052056;28;20223;-73
2022/11/02 02:59:01;;;;;;;2.15;1.08;;;18.20;68.00;;;;;;5052598;28;20266;-72
2022/11/02 03:01:27;;;;;;;3.42;0.98;;;18.20;68.00;;;;;;5051802;28;20763;-72
2022/11/02 03:03:53;;;;;;;2.20;0.90;;;18.20;68.00;;;;;;5052691;28;20270;-73
2022/11/02 03:06:26;;;;;;;2.00;1.02;;;18.20;68.00;;;;;;5053311;28;20179;-71
2022/11/02 03:09:07;;;;;;;2.90;1.30;;;18.20;68.00;;;;;;5051388;28;20290;-72
2022/11/02 03:11:33;;;;;;;1.92;0.70;;;18.20;67.90;;;;;;5053687;28;20695;-72
2022/11/02 03:14:26;;;;;;;2.10;1.00;;;18.10;67.90;;;;;;5051310;28;20235;-72
2022/11/02 03:17:08;;;;;;;2.55;0.95;;;18.20;68.00;;;;;;5041244;28;20278;-72
2022/11/02 03:19:40;;;;;;;1.25;0.70;;;18.10;67.90;;;;;;5052267;28;20265;-72
2022/11/02 03:22:23;;;;;;;2.10;0.70;;;18.20;67.90;;;;;;5053048;28;20186;-73
2022/11/02 03:24:56;;;;;;;1.83;1.17;;;18.10;67.90;;;;;;5052104;28;20224;-73
2022/11/02 03:27:31;;;;;;;1.20;1.10;;;18.10;67.90;;;;;;5052290;28;20197;-72
2022/11/02 03:30:06;;;;;;;1.48;0.88;;;18.10;67.90;;;;;;5052139;28;20214;-73
2022/11/02 03:32:46;;;;;;;3.28;0.95;;;18.10;67.90;;;;;;5051877;28;20198;-72
2022/11/02 03:35:28;;;;;;;1.77;1.08;;;18.10;67.80;;;;;;5051850;28;20183;-72
2022/11/02 03:38:18;;;;;;;1.45;1.02;;;18.10;67.90;;;;;;5051204;28;20638;-72
2022/11/02 03:40:45;;;;;;;3.22;1.20;;;18.10;67.90;;;;;;5052015;28;20182;-72
2022/11/02 03:43:11;;;;;;;1.40;0.65;;;18.10;67.90;;;;;;5051521;28;20179;-72
2022/11/02 03:45:46;;;;;;;2.95;1.10;;;18.10;67.90;;;;;;5051079;28;20258;-72
2022/11/02 03:48:11;;;;;;;2.00;1.02;;;18.10;67.90;;;;;;5051044;28;20234;-72
2022/11/02 03:50:39;;;;;;;1.95;0.77;;;18.10;67.90;;;;;;5051244;28;20202;-72
2022/11/02 03:53:14;;;;;;;2.85;1.00;;;18.00;67.80;;;;;;5051488;28;20178;-73
2022/11/02 03:55:41;;;;;;;2.95;1.00;;;18.10;67.80;;;;;;5051656;28;20634;-72
2022/11/02 03:58:09;;;;;;;2.55;1.10;;;18.10;67.80;;;;;;5050448;28;20718;-74
2022/11/02 04:00:34;;;;;;;3.53;1.35;;;18.10;67.80;;;;;;5051856;28;20218;-72
2022/11/02 04:03:02;;;;;;;2.58;0.70;;;18.00;67.70;;;;;;5051506;28;20213;-72
2022/11/02 04:05:35;;;;;;;2.55;1.00;;;18.10;67.80;;;;;;5051035;28;20179;-72
2022/11/02 04:16:13;;;;;;;1.88;0.95;;;18.10;67.70;;;;;;5052586;28;20203;-72
2022/11/02 04:21:26;;;;;;;1.95;0.82;;;18.00;67.60;;;;;;5052976;28;20178;-73
2022/11/02 04:26:36;;;;;;;1.23;0.90;;;18.00;67.70;;;;;;5051884;28;20317;-73
2022/11/02 04:29:02;;;;;;;2.90;1.00;;;18.00;67.70;;;;;;5052068;28;20757;-73
2022/11/02 04:31:28;;;;;;;3.63;1.15;;;18.00;67.70;;;;;;5052721;28;20171;-72
2022/11/02 04:33:53;;;;;;;1.70;0.70;;;18.00;67.70;;;;;;5051957;28;20538;-72
2022/11/02 04:36:19;;;;;;;2.28;1.10;;;18.10;67.80;;;;;;5052139;28;20537;-72
2022/11/02 04:38:44;;;;;;;1.55;0.90;;;18.00;67.70;;;;;;5052666;28;20669;-72
2022/11/02 04:43:58;;;;;;;2.30;1.10;;;18.00;67.50;;;;;;5052304;28;20325;-73
2022/11/02 04:46:25;;;;;;;1.77;1.05;;;18.00;67.50;;;;;;5052427;28;20706;-73
2022/11/02 04:48:51;;;;;;;3.17;0.90;;;18.00;67.40;;;;;;5051728;28;20577;-72
2022/11/02 04:51:16;;;;;;;3.40;1.17;;;18.00;67.40;;;;;;5052037;28;20178;-73
2022/11/02 04:53:42;;;;;;;1.80;1.10;;;18.00;67.50;;;;;;5052383;28;20262;-73
2022/11/02 04:56:07;;;;;;;2.67;1.00;;;18.00;67.60;;;;;;5051173;28;20180;-73
2022/11/02 04:58:33;;;;;;;2.80;1.20;;;18.00;67.60;;;;;;5052416;28;20181;-73
2022/11/02 05:01:06;;;;;;;3.13;1.75;;;18.00;67.50;;;;;;5053715;28;20570;-72
2022/11/02 05:03:32;;;;;;;1.48;0.88;;;18.00;67.20;;;;;;5056223;28;20546;-72
2022/11/02 05:05:57;;;;;;;2.90;1.02;;;18.00;67.40;;;;;;5055652;28;20699;-71
2022/11/02 05:08:23;;;;;;;2.70;0.90;;;17.90;67.30;;;;;;5055135;28;20214;-70
2022/11/02 05:10:49;;;;;;;3.80;1.40;;;18.00;67.40;;;;;;5056047;28;20175;-71
2022/11/02 05:13:14;;;;;;;3.58;1.05;;;18.00;67.30;;;;;;5055486;28;20179;-71
2022/11/02 05:15:40;;;;;;;3.38;1.10;;;17.90;67.30;;;;;;5054899;28;20227;-72
2022/11/02 05:18:05;;;;;;;2.30;0.90;;;18.00;67.30;;;;;;5055465;28;20185;-72
2022/11/02 05:20:31;;;;;;;1.65;1.05;;;18.00;67.30;;;;;;5055714;28;20654;-72
2022/11/02 05:22:57;;;;;;;3.50;1.40;;;18.00;67.30;;;;;;5053540;28;20638;-73
2022/11/02 05:25:22;;;;;;;2.20;1.33;;;18.00;67.30;;;;;;5055703;28;20171;-72
2022/11/02 05:27:48;;;;;;;2.92;1.92;;;18.00;67.30;;;;;;5055421;28;20510;-73
2022/11/02 05:30:13;;;;;;;2.17;1.20;;;18.00;67.30;;;;;;5054496;28;20171;-73
2022/11/02 05:32:39;;;;;;;1.63;1.00;;;18.00;67.20;;;;;;5055554;28;20186;-72
2022/11/02 05:35:05;;;;;;;3.28;1.35;;;17.90;67.20;;;;;;5055062;28;20170;-72
2022/11/02 05:37:30;;;;;;;2.15;1.13;;;18.00;67.30;;;;;;5054580;28;20213;-72
2022/11/02 05:39:57;;;;;;;2.95;1.23;;;18.00;67.20;;;;;;5055283;28;20186;-72
2022/11/02 05:42:23;;;;;;;4.13;1.48;;;17.90;67.20;;;;;;5055392;28;20171;-72
2022/11/02 05:44:48;;;;;;;2.50;1.02;;;17.90;67.10;;;;;;5054643;28;20634;-72
2022/11/02 05:47:14;;;;;;;2.72;1.05;;;17.90;67.00;;;;;;5054821;28;20176;-73
2022/11/02 05:49:39;;;;;;;3.47;1.52;;;17.90;67.00;;;;;;5055080;28;20698;-72
2022/11/02 05:52:05;;;;;;;2.85;1.23;;;17.90;67.10;;;;;;5054056;28;20207;-73
2022/11/02 05:54:30;;;;;;;3.60;1.40;;;17.90;67.00;;;;;;5055268;28;20179;-72
2022/11/02 05:56:56;;;;;;;2.30;1.35;;;17.90;67.10;;;;;;5055216;28;20221;-73
2022/11/02 05:59:21;;;;;;;2.65;1.10;;;17.90;67.10;;;;;;5054233;28;20233;-73
2022/11/02 06:01:47;;;;;;;3.33;1.42;;;17.90;67.10;;;;;;5054981;28;20220;-72
2022/11/02 06:04:12;;;;;;;3.30;1.40;;;17.90;67.10;;;;;;5054027;28;20174;-73
2022/11/02 06:06:38;;;;;;;2.83;1.40;;;17.90;67.10;;;;;;5054855;28;20175;-72
2022/11/02 06:09:03;;;;;;;1.65;1.10;;;17.90;67.10;;;;;;5054325;28;20199;-72
2022/11/02 06:11:29;;;;;;;2.25;1.02;;;17.90;67.10;;;;;;5053949;28;20167;-73
2022/11/02 06:13:54;;;;;;;2.60;1.17;;;17.90;67.10;;;;;;5054665;28;20247;-72
2022/11/02 06:16:20;;;;;;;5.65;2.13;;;17.90;66.90;;;;;;5054522;28;20163;-72
2022/11/02 06:18:46;;;;;;;2.53;1.48;;;17.90;66.90;;;;;;5052874;28;20650;-72
2022/11/02 06:21:11;;;;;;;3.53;1.73;;;17.90;67.00;;;;;;5054287;28;20179;-73
2022/11/02 06:23:38;;;;;;;2.22;1.00;;;17.90;67.10;;;;;;5054705;28;20175;-74
2022/11/02 06:26:04;;;;;;;2.22;1.20;;;17.90;67.00;;;;;;5053774;28;20198;-74
2022/11/02 06:28:29;;;;;;;2.50;1.15;;;17.90;67.10;;;;;;5054587;28;20658;-73
2022/11/02 06:30:55;;;;;;;3.70;1.58;;;17.80;67.10;;;;;;5054317;28;20585;-72
2022/11/02 06:33:21;;;;;;;2.10;1.40;;;17.90;67.10;;;;;;5053342;28;20183;-71
2022/11/02 06:35:47;;;;;;;3.05;0.98;;;17.90;67.10;;;;;;5054149;28;20658;-72
2022/11/02 06:38:13;;;;;;;4.45;1.70;;;17.90;67.10;;;;;;5053854;28;20634;-72
2022/11/02 06:40:39;;;;;;;2.50;1.30;;;17.80;67.00;;;;;;5053448;28;20194;-72
2022/11/02 06:43:04;;;;;;;5.50;1.75;;;17.80;67.00;;;;;;5053959;28;20187;-73
2022/11/02 06:45:30;;;;;;;3.42;1.27;;;17.90;67.00;;;;;;5054182;28;20174;-72
2022/11/02 06:47:55;;;;;;;4.45;1.50;;;17.90;67.00;;;;;;5053174;28;20514;-72
2022/11/02 06:50:23;;;;;;;3.33;1.38;;;17.80;67.00;;;;;;5053561;28;20175;-72
2022/11/02 06:52:48;;;;;;;2.78;1.20;;;17.90;67.90;;;;;;5054132;28;20262;-72
2022/11/02 06:55:14;;;;;;;1.95;1.15;;;17.90;67.10;;;;;;5052852;28;20717;-73
2022/11/02 06:57:40;;;;;;;4.55;1.30;;;17.90;67.10;;;;;;5054056;28;20261;-73
2022/11/02 07:00:07;;;;;;;1.77;1.20;;;17.80;67.00;;;;;;5053623;28;20257;-72
2022/11/02 07:02:33;;;;;;;1.77;1.23;;;17.90;67.10;;;;;;5052961;28;20576;-72
2022/11/02 07:04:58;;;;;;;3.67;1.50;;;17.80;67.00;;;;;;5053210;28;20270;-71
2022/11/02 07:07:24;;;;;;;2.45;0.95;;;17.90;67.00;;;;;;5053538;28;20194;-71
2022/11/02 07:09:49;;;;;;;3.17;1.23;;;17.90;67.00;;;;;;5052849;28;20298;-71
2022/11/02 07:12:15;;;;;;;4.03;1.25;;;17.80;67.00;;;;;;5053476;28;20186;-72
2022/11/02 07:14:40;;;;;;;3.00;1.10;;;17.90;67.00;;;;;;5052736;28;20242;-72
2022/11/02 07:17:06;;;;;;;2.97;1.08;;;17.90;67.00;;;;;;5053365;28;20195;-72
2022/11/02 07:19:31;;;;;;;3.35;1.20;;;17.90;67.00;;;;;;5053464;28;20254;-72
2022/11/02 07:21:57;;;;;;;2.95;1.25;;;17.90;66.90;;;;;;5052184;28;20643;-73
2022/11/02 07:24:22;;;;;;;2.83;0.98;;;17.90;66.90;;;;;;5053058;28;20198;-73
2022/11/02 07:26:49;;;;;;;3.20;1.00;;;17.90;66.90;;;;;;5053492;28;20198;-73
2022/11/02 07:29:17;;;;;;;3.10;1.17;;;17.90;66.90;;;;;;5052385;28;20258;-73
2022/11/02 07:31:43;;;;;;;4.18;1.00;;;17.90;66.80;;;;;;5053340;28;20198;-72
2022/11/02 07:34:09;;;;;;;3.90;1.17;;;18.00;66.80;;;;;;5053062;28;20646;-72
2022/11/02 07:36:34;;;;;;;4.97;1.95;;;18.00;66.70;;;;;;5052640;28;20642;-72
2022/11/02 07:39:00;;;;;;;3.38;1.23;;;18.00;66.70;;;;;;5052961;28;20195;-73
2022/11/02 07:41:25;;;;;;;2.38;1.15;;;18.00;66.60;;;;;;5053278;28;20171;-72
2022/11/02 07:43:51;;;;;;;2.90;1.10;;;18.00;66.50;;;;;;5052301;28;20175;-73
2022/11/02 07:46:17;;;;;;;3.08;1.50;;;18.10;66.60;;;;;;5052878;28;20549;-72
2022/11/02 07:48:43;;;;;;;2.88;0.98;;;18.10;67.40;;;;;;5053055;28;20211;-72
2022/11/02 07:51:10;;;;;;;5.05;1.40;;;18.10;66.50;;;;;;5052105;28;20171;-73
2022/11/02 07:53:35;;;;;;;2.13;1.13;;;18.00;66.50;;;;;;5053017;28;20227;-72
2022/11/02 07:56:02;;;;;;;3.03;1.08;;;18.10;66.60;;;;;;5052786;28;20603;-73
2022/11/02 07:58:27;;;;;;;2.42;1.35;;;18.10;66.50;;;;;;5051020;28;20535;-72
2022/11/02 08:00:55;;;;;;;2.63;1.17;;;18.10;66.40;;;;;;5052793;28;20167;-73
2022/11/02 08:03:21;;;;;;;2.53;1.38;;;18.20;66.30;;;;;;5052500;28;20191;-73
2022/11/02 08:05:46;;;;;;;2.00;1.30;;;18.20;66.20;;;;;;5052024;28;20657;-71
2022/11/02 08:08:14;;;;;;;3.95;1.40;;;18.20;66.20;;;;;;5052561;28;20203;-72
2022/11/02 08:10:39;;;;;;;3.72;1.45;;;18.20;66.10;;;;;;5052687;28;20627;-72
2022/11/02 08:13:06;;;;;;;4.55;1.40;;;18.20;66.20;;;;;;5051664;28;20263;-73
2022/11/02 08:15:31;;;;;;;2.45;1.20;;;18.20;66.30;;;;;;5052530;28;20781;-73
2022/11/02 08:18:01;;;;;;;2.75;1.15;;;18.10;66.50;;;;;;5051617;28;20171;-72
2022/11/02 08:20:27;;;;;;;1.92;1.08;;;18.10;66.60;;;;;;5052562;28;20638;-73
2022/11/02 08:22:52;;;;;;;3.70;1.65;;;18.10;66.70;;;;;;5052732;28;20186;-73
2022/11/02 08:25:18;;;;;;;3.72;1.20;;;18.10;66.70;;;;;;5051767;28;20175;-73
2022/11/02 08:27:43;;;;;;;1.85;1.40;;;18.10;66.70;;;;;;5052697;28;20171;-73
2022/11/02 08:30:10;;;;;;;2.17;1.08;;;18.10;66.60;;;;;;5052255;28;20219;-72
2022/11/02 08:32:35;;;;;;;1.77;1.10;;;18.10;66.70;;;;;;5051892;28;20183;-72
2022/11/02 08:35:01;;;;;;;1.92;1.10;;;18.10;66.70;;;;;;5053555;28;20642;-73
2022/11/02 08:37:26;;;;;;;4.65;1.73;;;18.10;66.70;;;;;;5056550;28;20203;-71
2022/11/02 08:39:52;;;;;;;2.72;1.50;;;18.10;66.80;;;;;;5055748;28;20171;-73
2022/11/02 08:42:18;;;;;;;2.75;1.17;;;18.00;66.70;;;;;;5056126;28;20179;-72
2022/11/02 08:44:43;;;;;;;2.78;0.95;;;18.00;66.70;;;;;;5056288;28;20175;-73
2022/11/02 08:47:09;;;;;;;2.60;1.10;;;18.10;66.70;;;;;;5055270;28;20183;-73
2022/11/02 08:49:34;;;;;;;1.92;1.00;;;18.10;66.60;;;;;;5056326;28;20210;-73
2022/11/02 08:52:00;;;;;;;3.83;1.42;;;18.10;66.50;;;;;;5056153;28;20254;-73
2022/11/02 08:54:25;;;;;;;3.03;1.67;;;18.10;66.40;;;;;;5055664;28;20244;-73
2022/11/02 08:56:51;;;;;;;2.50;1.02;;;18.20;66.20;;;;;;5056216;28;20719;-73
2022/11/02 08:59:16;;;;;;;4.68;1.58;;;18.30;66.10;;;;;;5055798;28;20183;-72
2022/11/02 09:01:42;;;;;;;2.97;1.00;;;18.40;65.70;;;;;;5055292;28;20179;-72
2022/11/02 09:04:07;;;;;;;2.28;1.10;;;18.40;65.50;;;;;;5055921;28;20182;-72
2022/11/02 09:06:33;;;;;;;4.03;1.38;;;18.40;65.40;;;;;;5056077;28;20182;-70
2022/11/02 09:08:58;;;;;;;3.20;1.33;;;18.50;65.20;;;;;;5053566;28;20289;-72
2022/11/02 09:11:24;;;;;;;2.78;1.35;;;18.50;65.10;;;;;;5056005;28;20171;-72
2022/11/02 09:13:49;;;;;;;2.08;1.00;;;18.60;65.00;;;;;;5055609;28;20587;-72
2022/11/02 09:16:15;;;;;;;2.35;1.17;;;18.60;65.00;;;;;;5054577;28;20174;-72
2022/11/02 09:18:40;;;;;;;3.30;0.90;;;18.70;65.00;;;;;;5055910;28;20175;-72
2022/11/02 09:21:06;;;;;;;4.05;1.17;;;18.70;65.00;;;;;;5055057;28;20175;-73
2022/11/02 09:23:32;;;;;;;3.20;1.48;;;18.70;64.90;;;;;;5055555;28;20183;-73
2022/11/02 09:25:59;;;;;;;3.30;1.30;;;18.70;64.90;;;;;;5055396;28;20178;-73
2022/11/02 09:28:24;;;;;;;2.95;0.90;;;18.80;64.80;;;;;;5054744;28;20662;-73
2022/11/02 09:30:50;;;;;;;2.92;1.25;;;18.80;64.80;;;;;;5055479;28;20185;-72
2022/11/02 09:33:15;;;;;;;2.10;1.25;;;18.80;64.90;;;;;;5055348;28;20630;-72
2022/11/02 09:35:45;;;;;;;3.50;1.27;;;18.80;64.80;;;;;;5054903;28;20219;-72
2022/11/02 09:38:11;;;;;;;4.38;1.30;;;18.80;64.70;;;;;;5055261;28;20183;-72
2022/11/02 09:40:37;;;;;;;1.45;0.90;;;18.80;64.70;;;;;;5055395;28;20512;-72
2022/11/02 09:43:28;;;;;;;2.85;1.08;;;18.80;64.70;;;;;;5053082;28;20660;-72
2022/11/02 09:46:08;;;;;;;1.52;1.13;;;18.80;64.90;;;;;;5053757;28;20179;-73
2022/11/02 09:48:38;;;;;;;3.88;1.10;;;18.80;64.90;;;;;;5053996;28;20203;-72
2022/11/02 09:51:15;;;;;;;2.15;1.02;;;18.80;64.90;;;;;;5053070;28;20181;-73
2022/11/02 09:54:05;;;;;;;2.47;1.08;;;18.80;64.90;;;;;;5053958;28;20167;-73
2022/11/02 09:56:31;;;;;;;4.40;1.45;;;18.80;64.90;;;;;;5054536;28;20198;-72
2022/11/02 09:59:02;;;;;;;4.35;1.25;;;18.80;65.00;;;;;;5053582;28;20580;-73
2022/11/02 10:01:50;;;;;;;3.00;1.42;;;18.80;65.00;;;;;;5053819;28;20210;-72
2022/11/02 10:04:40;;;;;;;3.65;1.25;;;18.80;65.00;;;;;;5052746;28;20638;-72
2022/11/02 10:07:07;;;;;;;3.67;1.48;;;18.70;65.40;;;;;;5054659;28;20173;-71
2022/11/02 10:09:39;;;;;;;4.32;1.50;;;18.70;65.50;;;;;;5053492;28;20215;-72
2022/11/02 10:12:13;;;;;;;4.70;1.25;;;18.70;65.50;;;;;;5052740;28;20187;-72
2022/11/02 10:14:46;;;;;;;2.92;1.00;;;18.70;65.30;;;;;;5053297;28;20223;-72
2022/11/02 10:17:21;;;;;;;4.10;1.50;;;18.70;65.30;;;;;;5053121;28;20657;-72
2022/11/02 10:19:51;;;;;;;4.50;1.10;;;18.70;65.40;;;;;;5053343;28;20179;-72
2022/11/02 10:22:16;;;;;;;2.92;1.15;;;18.70;65.30;;;;;;5053081;28;20696;-73
2022/11/02 10:24:43;;;;;;;3.10;1.05;;;18.70;65.40;;;;;;5052655;28;20384;-72
2022/11/02 10:27:15;;;;;;;3.92;1.33;;;18.70;65.50;;;;;;5054021;28;20701;-72
2022/11/02 10:30:00;;;;;;;2.60;0.80;;;18.70;65.50;;;;;;5053366;28;20215;-73
2022/11/02 10:32:26;;;;;;;2.78;0.85;;;18.70;65.80;;;;;;5052553;28;20179;-71
2022/11/02 10:34:51;;;;;;;2.88;1.05;;;18.70;65.80;;;;;;5054406;28;20174;-72
2022/11/02 10:37:29;;;;;;;3.58;1.40;;;18.70;65.80;;;;;;5053903;28;20171;-71
2022/11/02 10:40:21;;;;;;;2.90;1.10;;;18.70;65.70;;;;;;5053739;28;20198;-72
2022/11/02 10:43:04;;;;;;;2.28;1.00;;;18.70;65.80;;;;;;5053267;28;20175;-72
2022/11/02 10:45:46;;;;;;;2.95;1.13;;;18.70;65.90;;;;;;5052528;28;20179;-72
2022/11/02 10:48:21;;;;;;;1.27;1.00;;;18.70;65.70;;;;;;5052677;28;20183;-72
2022/11/02 10:51:09;;;;;;;2.25;0.80;;;18.70;65.70;;;;;;5054127;28;20175;-72
2022/11/02 10:53:38;;;;;;;4.35;1.13;;;18.70;65.70;;;;;;5052224;28;20190;-72
2022/11/02 10:56:13;;;;;;;1.70;0.98;;;18.70;65.60;;;;;;5052546;28;20187;-73
2022/11/02 10:58:43;;;;;;;2.63;1.00;;;18.70;65.60;;;;;;5053128;28;20175;-73
2022/11/02 11:01:10;;;;;;;1.77;0.90;;;18.80;66.20;;;;;;5051879;28;20186;-72
2022/11/02 11:03:51;;;;;;;1.63;0.90;;;18.70;66.00;;;;;;5053770;28;20186;-72
2022/11/02 11:06:16;;;;;;;3.90;1.35;;;18.70;65.80;;;;;;5053600;28;20238;-70
2022/11/02 11:08:43;;;;;;;1.88;1.08;;;18.70;65.80;;;;;;5051716;28;20246;-71
2022/11/02 11:11:21;;;;;;;2.47;1.05;;;18.80;65.80;;;;;;5052094;28;20218;-73
2022/11/02 11:14:04;;;;;;;2.53;1.13;;;18.80;65.70;;;;;;5051487;28;20179;-72
2022/11/02 11:16:38;;;;;;;3.55;1.70;;;18.80;65.70;;;;;;5053656;28;20274;-72
2022/11/02 11:19:05;;;;;;;3.22;1.17;;;18.80;65.60;;;;;;5052219;28;20174;-73
2022/11/02 11:21:35;;;;;;;2.40;1.05;;;18.80;65.50;;;;;;5051383;28;20214;-72
2022/11/02 11:24:30;;;;;;;3.13;0.85;;;18.80;65.80;;;;;;5051891;28;20594;-73
2022/11/02 11:27:04;;;;;;;3.38;0.90;;;18.80;65.60;;;;;;5052290;28;20273;-72
2022/11/02 11:29:30;;;;;;;2.55;1.08;;;18.90;65.40;;;;;;5052387;28;20629;-72
2022/11/02 11:31:57;;;;;;;2.75;1.10;;;18.80;65.30;;;;;;5053404;28;20171;-72
2022/11/02 11:34:27;;;;;;;3.90;1.63;;;18.80;65.30;;;;;;5052282;28;20269;-71
2022/11/02 11:36:53;;;;;;;1.83;0.95;;;18.80;65.40;;;;;;5051317;28;20629;-72
2022/11/02 11:39:28;;;;;;;3.13;1.42;;;18.70;65.60;;;;;;5051789;28;20229;-71
2022/11/02 11:41:53;;;;;;;2.60;1.20;;;18.70;65.40;;;;;;5051124;28;20261;-72
2022/11/02 11:44:19;;;;;;;3.75;1.50;;;18.80;65.30;;;;;;5051610;28;20257;-72
2022/11/02 11:46:49;;;;;;;5.25;1.60;;;18.90;64.80;;;;;;5051811;28;20252;-72
2022/11/02 11:49:35;;;;;;;3.10;1.20;;;19.00;64.80;;;;;;5050884;28;20225;-72
2022/11/02 11:52:01;;;;;;;2.33;1.05;;;19.00;64.50;;;;;;5052496;28;20208;-72
2022/11/02 11:54:28;;;;;;;4.15;1.20;;;19.10;64.50;;;;;;5053002;28;20202;-72
2022/11/02 11:57:21;;;;;;;2.78;1.30;;;19.10;64.40;;;;;;5052256;28;20182;-73
2022/11/02 11:59:48;;;;;;;2.20;1.35;;;19.10;64.30;;;;;;5049987;28;20189;-72
2022/11/02 12:02:34;;;;;;;3.42;1.35;;;19.10;64.40;;;;;;5052401;28;20577;-72
2022/11/02 12:05:15;;;;;;;3.63;1.27;;;19.00;64.50;;;;;;5051672;28;20654;-72
2022/11/02 12:08:34;;;;;;;3.03;1.42;;;19.10;64.40;;;;;;5053019;28;20195;-70
2022/11/02 12:11:33;;;;;;;4.60;1.02;;;19.10;64.40;;;;;;5050535;28;20206;-72
2022/11/02 12:14:09;;;;;;;3.10;1.30;;;19.10;64.30;;;;;;5051059;28;20175;-72
2022/11/02 12:16:51;;;;;;;3.92;1.40;;;19.00;64.50;;;;;;5051660;28;20214;-72
2022/11/02 12:19:26;;;;;;;3.35;1.50;;;19.00;64.70;;;;;;5050697;28;20179;-72
2022/11/02 12:22:28;;;;;;;2.58;0.90;;;19.00;64.70;;;;;;5051482;28;20182;-73
2022/11/02 12:24:57;;;;;;;5.28;1.30;;;19.00;64.70;;;;;;5050917;28;20202;-74
2022/11/02 12:27:32;;;;;;;2.17;1.30;;;19.10;64.70;;;;;;5052643;28;20258;-72
2022/11/02 12:30:13;;;;;;;2.47;1.33;;;19.10;64.60;;;;;;5051166;28;20215;-73
2022/11/02 12:33:01;;;;;;;3.53;1.20;;;19.10;64.70;;;;;;5051014;28;20202;-71
2022/11/02 12:35:45;;;;;;;3.38;1.50;;;19.10;64.70;;;;;;5052640;28;20171;-72
2022/11/02 12:38:39;;;;;;;3.30;1.58;;;19.10;64.70;;;;;;5051710;28;20258;-72
2022/11/02 12:41:37;;;;;;;2.92;0.85;;;19.10;64.80;;;;;;5051341;28;20175;-73
2022/11/02 12:44:22;;;;;;;2.10;0.93;;;19.10;64.70;;;;;;5037214;28;20675;-72
2022/11/02 12:46:54;;;;;;;3.95;1.10;;;19.10;64.50;;;;;;5050497;28;20222;-73
2022/11/02 12:49:41;;;;;;;1.83;1.05;;;19.20;64.40;;;;;;5050985;28;20215;-72
2022/11/02 12:52:28;;;;;;;3.08;0.90;;;19.20;64.40;;;;;;5050571;28;20175;-72
2022/11/02 12:54:57;;;;;;;2.40;0.95;;;19.10;64.80;;;;;;5051274;28;20202;-72
2022/11/02 12:57:24;;;;;;;3.85;1.00;;;19.10;64.80;;;;;;5050994;28;20656;-73
2022/11/02 12:59:54;;;;;;;2.38;1.10;;;19.10;64.80;;;;;;5050530;28;20182;-72
2022/11/02 13:02:47;;;;;;;2.65;1.23;;;19.10;64.80;;;;;;5051038;28;20183;-72
2022/11/02 13:05:17;;;;;;;2.22;1.38;;;19.20;64.50;;;;;;5050997;28;20228;-72
2022/11/02 13:07:47;;;;;;;2.85;1.05;;;19.20;64.30;;;;;;5050326;28;20186;-71
2022/11/02 13:10:18;;;;;;;2.00;1.10;;;19.10;64.60;;;;;;5050809;28;20258;-72
2022/11/02 13:12:44;;;;;;;3.30;1.13;;;19.20;64.90;;;;;;5050987;28;20186;-72
2022/11/02 13:15:12;;;;;;;3.83;1.52;;;19.20;64.10;;;;;;5049663;28;20226;-72
2022/11/02 13:18:07;;;;;;;3.78;1.00;;;19.30;64.20;;;;;;5051090;28;20229;-72
2022/11/02 13:20:52;;;;;;;3.95;1.13;;;19.30;64.10;;;;;;5050508;28;20318;-72